Time;durP1;ratioP1;P1;durP2;ratioP2;P2;SDS_P1;SDS_P2;PMS_P1;PMS_P2;Temp;Humidity;BMP_temperature;BMP_pressure;BME280_temperature;BME280_humidity;BME280_pressure;Samples;Min_cycle;Max_cycle;Signal;HPM_P1;HPM_P2
2021/12/24 00:00:34;;;;;;;1.03;1.03;;;0.40;99.90;;;;;;5074140;28;20446;-89
2021/12/24 00:02:59;;;;;;;0.90;0.90;;;0.40;99.90;;;;;;5073751;28;20488;-90
2021/12/24 00:05:25;;;;;;;1.33;1.23;;;0.40;99.90;;;;;;5068254;28;20437;-90
2021/12/24 00:07:51;;;;;;;0.80;0.80;;;0.30;99.90;;;;;;5091805;28;20180;-90
2021/12/24 00:10:17;;;;;;;0.73;0.73;;;0.40;99.90;;;;;;5090998;28;20474;-90
2021/12/24 00:12:48;;;;;;;0.80;0.80;;;0.40;99.90;;;;;;5073074;28;20530;-91
2021/12/24 00:15:41;;;;;;;1.43;1.33;;;0.30;99.90;;;;;;5092241;28;20189;-91
2021/12/24 00:18:19;;;;;;;1.33;1.23;;;0.40;99.90;;;;;;5088720;28;20423;-90
2021/12/24 00:37:09;;;;;;;1.50;1.40;;;0.30;99.90;;;;;;5092349;28;20480;-93
2021/12/24 00:39:41;;;;;;;1.63;1.53;;;0.30;99.90;;;;;;5065672;28;20475;-93
2021/12/24 00:42:07;;;;;;;0.93;0.93;;;0.40;99.90;;;;;;5090692;28;20439;-92
2021/12/24 00:44:33;;;;;;;1.00;1.00;;;0.40;99.90;;;;;;5091123;28;20791;-93
2021/12/24 00:46:58;;;;;;;1.63;1.53;;;0.40;99.90;;;;;;5093456;28;20181;-92
2021/12/24 00:49:24;;;;;;;0.90;0.90;;;0.30;99.90;;;;;;5092724;28;20677;-92
2021/12/24 00:52:07;;;;;;;1.73;1.63;;;0.40;99.90;;;;;;5092262;28;20583;-93
2021/12/24 00:57:20;;;;;;;1.43;1.33;;;0.40;99.90;;;;;;5085768;28;20423;-91
2021/12/24 00:59:46;;;;;;;1.57;1.10;;;0.40;99.90;;;;;;5074966;28;20436;-92
2021/12/24 01:02:11;;;;;;;1.43;1.33;;;0.40;99.90;;;;;;5093187;28;20431;-93
2021/12/24 01:04:37;;;;;;;1.40;1.30;;;0.40;99.90;;;;;;5074782;28;20180;-92
2021/12/24 01:07:03;;;;;;;3.63;3.00;;;0.40;99.90;;;;;;5092602;28;20197;-92
2021/12/24 01:09:28;;;;;;;1.10;1.10;;;0.40;99.90;;;;;;5092463;28;20258;-93
2021/12/24 01:11:54;;;;;;;2.00;1.90;;;0.40;99.90;;;;;;5090659;28;20430;-92
2021/12/24 01:14:21;;;;;;;1.03;1.00;;;0.40;99.90;;;;;;5092083;28;20557;-92
2021/12/24 01:17:06;;;;;;;2.23;2.13;;;0.40;99.90;;;;;;5074233;28;20212;-92
2021/12/24 01:19:33;;;;;;;1.27;1.17;;;0.30;99.90;;;;;;5092444;28;20480;-92
2021/12/24 01:24:46;;;;;;;2.17;2.00;;;0.40;99.90;;;;;;5092729;28;20475;-92
2021/12/24 01:30:09;;;;;;;0.80;0.80;;;0.40;99.90;;;;;;5093217;28;20470;-93
2021/12/24 01:43:20;;;;;;;0.83;0.83;;;0.40;99.90;;;;;;5086412;28;20442;-91
2021/12/24 01:45:49;;;;;;;0.77;0.73;;;0.40;99.90;;;;;;5091888;28;20435;-91
2021/12/24 01:48:15;;;;;;;0.80;0.70;;;0.40;99.90;;;;;;5084093;28;20514;-91
2021/12/24 01:50:42;;;;;;;0.87;0.87;;;0.40;99.90;;;;;;5073961;28;20811;-91
2021/12/24 01:53:09;;;;;;;0.80;0.80;;;0.40;99.90;;;;;;5066300;28;20450;-92
2021/12/24 01:55:36;;;;;;;2.50;1.77;;;0.40;99.90;;;;;;5091416;28;20431;-91
2021/12/24 01:58:02;;;;;;;0.70;0.70;;;0.50;99.90;;;;;;5091049;28;20778;-91
2021/12/24 02:00:41;;;;;;;1.00;1.00;;;0.40;99.90;;;;;;5070652;28;20458;-91
2021/12/24 02:03:09;;;;;;;0.87;0.87;;;0.50;99.90;;;;;;5090501;28;20434;-90
2021/12/24 02:05:35;;;;;;;0.83;0.83;;;0.50;99.90;;;;;;5072346;28;20814;-91
2021/12/24 02:08:02;;;;;;;0.90;0.90;;;0.40;99.90;;;;;;5072570;28;20448;-91
2021/12/24 02:10:28;;;;;;;0.80;0.80;;;0.40;99.90;;;;;;5072819;28;20510;-91
2021/12/24 02:12:54;;;;;;;1.83;1.73;;;0.40;99.90;;;;;;5072601;28;20468;-91
2021/12/24 02:28:38;;;;;;;0.97;0.97;;;0.40;99.90;;;;;;5083074;28;20468;-89
2021/12/24 02:31:06;;;;;;;0.90;0.90;;;0.40;99.90;;;;;;5089820;28;20960;-90
2021/12/24 02:33:32;;;;;;;0.80;0.80;;;0.40;99.90;;;;;;5088675;28;20543;-89
2021/12/24 02:35:57;;;;;;;0.80;0.80;;;0.40;99.90;;;;;;5075180;28;20517;-89
2021/12/24 02:38:23;;;;;;;1.20;1.20;;;0.40;99.90;;;;;;5092920;28;20180;-88
2021/12/24 02:40:49;;;;;;;0.80;0.80;;;0.40;99.90;;;;;;5074791;28;20258;-90
2021/12/24 02:43:18;;;;;;;1.10;1.10;;;0.40;99.90;;;;;;5092664;28;20193;-88
2021/12/24 02:45:46;;;;;;;0.80;0.80;;;0.40;99.90;;;;;;5075407;28;20212;-90
2021/12/24 02:48:36;;;;;;;0.80;0.80;;;0.40;99.90;;;;;;5093495;28;20457;-88
2021/12/24 02:53:58;;;;;;;0.80;0.80;;;0.40;99.90;;;;;;5090830;28;20487;-89
2021/12/24 02:56:31;;;;;;;1.00;1.00;;;0.40;99.90;;;;;;5093069;28;20512;-89
2021/12/24 02:58:59;;;;;;;1.57;1.47;;;0.40;99.90;;;;;;5088615;28;20431;-90
2021/12/24 03:01:28;;;;;;;1.27;1.17;;;0.40;99.90;;;;;;5092814;28;20446;-89
2021/12/24 03:03:53;;;;;;;0.80;0.80;;;0.40;99.90;;;;;;5091991;28;20805;-89
2021/12/24 03:06:22;;;;;;;0.90;0.90;;;0.40;99.90;;;;;;5092264;28;20431;-89
2021/12/24 03:08:48;;;;;;;1.40;1.30;;;0.40;99.90;;;;;;5090782;28;20219;-88
2021/12/24 03:11:14;;;;;;;1.80;1.70;;;0.40;99.90;;;;;;5092674;28;20471;-90
2021/12/24 03:13:41;;;;;;;0.80;0.80;;;0.40;99.90;;;;;;5074274;28;20181;-89
2021/12/24 03:16:07;;;;;;;0.80;0.80;;;0.40;99.90;;;;;;5073934;28;20443;-90
2021/12/24 03:18:36;;;;;;;0.80;0.80;;;0.40;99.90;;;;;;5092843;28;20490;-89
2021/12/24 03:21:08;;;;;;;0.80;0.80;;;0.40;99.90;;;;;;5074123;28;20443;-88
2021/12/24 03:23:39;;;;;;;1.10;1.00;;;0.40;99.90;;;;;;5089885;28;20894;-89
2021/12/24 03:26:07;;;;;;;1.47;1.37;;;0.50;99.90;;;;;;5086703;28;20517;-89
2021/12/24 03:28:33;;;;;;;1.20;1.10;;;0.50;99.90;;;;;;5073552;28;20431;-89
2021/12/24 03:31:00;;;;;;;1.43;1.33;;;0.40;99.90;;;;;;5068481;28;20951;-89
2021/12/24 03:33:26;;;;;;;0.90;0.90;;;0.40;99.90;;;;;;5074665;28;20435;-89
2021/12/24 03:35:51;;;;;;;0.87;0.87;;;0.40;99.90;;;;;;5091101;28;20454;-89
2021/12/24 03:38:17;;;;;;;1.67;1.57;;;0.40;99.90;;;;;;5073438;28;20423;-89
2021/12/24 03:40:43;;;;;;;1.57;1.47;;;0.50;99.90;;;;;;5090695;28;20200;-88
2021/12/24 03:43:08;;;;;;;0.80;0.80;;;0.40;99.90;;;;;;5091546;28;20193;-88
2021/12/24 03:45:42;;;;;;;0.80;0.80;;;0.40;99.90;;;;;;5072831;28;20652;-88
2021/12/24 03:48:17;;;;;;;2.03;1.90;;;0.40;99.90;;;;;;5091798;28;20181;-89
2021/12/24 03:50:55;;;;;;;1.00;1.00;;;0.40;99.90;;;;;;5072764;28;20848;-88
2021/12/24 03:56:05;;;;;;;1.20;1.10;;;0.50;99.90;;;;;;5082404;28;20418;-88
2021/12/24 03:58:30;;;;;;;1.00;1.00;;;0.40;99.90;;;;;;5088428;28;20443;-88
2021/12/24 04:00:56;;;;;;;1.80;1.70;;;0.50;99.90;;;;;;5071288;28;20181;-87
2021/12/24 04:03:22;;;;;;;1.40;1.33;;;0.50;99.90;;;;;;5090775;28;20172;-88
2021/12/24 04:05:48;;;;;;;8.70;2.50;;;0.50;99.90;;;;;;5073246;28;20452;-88
2021/12/24 04:08:15;;;;;;;2.23;2.13;;;0.50;99.90;;;;;;5090574;28;20550;-89
2021/12/24 04:10:40;;;;;;;2.03;1.93;;;0.50;99.90;;;;;;5089918;28;20536;-87
2021/12/24 04:13:11;;;;;;;2.43;2.23;;;0.40;99.90;;;;;;5088615;28;20427;-88
2021/12/24 04:15:38;;;;;;;0.90;0.90;;;0.50;99.90;;;;;;5089793;28;20224;-88
2021/12/24 04:18:13;;;;;;;1.97;1.67;;;0.50;99.90;;;;;;5072317;28;20438;-88
2021/12/24 04:26:06;;;;;;;1.00;1.00;;;0.50;99.90;;;;;;5090114;28;20845;-88
2021/12/24 04:28:32;;;;;;;1.10;1.10;;;0.50;99.90;;;;;;5071765;28;20526;-88
2021/12/24 04:30:59;;;;;;;0.80;0.80;;;0.50;99.90;;;;;;5086762;28;20224;-88
2021/12/24 04:33:32;;;;;;;0.97;0.97;;;0.50;99.90;;;;;;5072013;28;20177;-89
2021/12/24 04:36:23;;;;;;;1.07;1.07;;;0.50;99.90;;;;;;5090252;28;20450;-88
2021/12/24 04:53:24;;;;;;;2.10;1.97;;;0.50;99.90;;;;;;5090097;28;20488;-87
2021/12/24 05:03:29;;;;;;;2.10;1.93;;;0.50;99.90;;;;;;5088860;28;20617;-86
2021/12/24 05:06:08;;;;;;;1.00;1.00;;;0.50;99.90;;;;;;5089186;28;20443;-87
2021/12/24 05:08:52;;;;;;;1.53;1.43;;;0.50;99.90;;;;;;5089985;28;20465;-88
2021/12/24 05:11:19;;;;;;;0.83;0.83;;;0.60;99.90;;;;;;5089752;28;20469;-88
2021/12/24 05:13:45;;;;;;;1.40;1.30;;;0.50;99.90;;;;;;5089619;28;20458;-87
2021/12/24 05:24:07;;;;;;;0.90;0.90;;;0.60;99.90;;;;;;5088949;28;20512;-87
2021/12/24 05:26:34;;;;;;;3.23;2.43;;;0.60;99.90;;;;;;5087786;28;20435;-88
2021/12/24 05:29:00;;;;;;;0.80;0.70;;;0.60;99.90;;;;;;5087642;28;20870;-88
2021/12/24 05:31:27;;;;;;;2.57;1.30;;;0.60;99.90;;;;;;5091113;28;20447;-89
2021/12/24 05:33:53;;;;;;;0.80;0.80;;;0.60;99.90;;;;;;5090004;28;20462;-87
2021/12/24 05:36:18;;;;;;;1.33;1.23;;;0.60;99.90;;;;;;5081809;28;20485;-87
2021/12/24 05:38:46;;;;;;;2.13;1.37;;;0.60;99.90;;;;;;5089096;28;20181;-87
2021/12/24 05:41:15;;;;;;;1.27;1.17;;;0.60;99.90;;;;;;5071399;28;20228;-88
2021/12/24 05:43:41;;;;;;;1.50;1.40;;;0.60;99.90;;;;;;5089679;28;20796;-89
2021/12/24 05:46:06;;;;;;;1.30;1.20;;;0.60;99.90;;;;;;5089841;28;20450;-88
2021/12/24 05:48:32;;;;;;;0.80;0.80;;;0.60;99.90;;;;;;5087010;28;20181;-88
2021/12/24 05:50:57;;;;;;;0.97;0.97;;;0.60;99.90;;;;;;5066543;28;20241;-87
2021/12/24 05:53:24;;;;;;;1.43;1.10;;;0.60;99.90;;;;;;5085849;28;20177;-87
2021/12/24 05:55:50;;;;;;;0.80;0.80;;;0.60;99.90;;;;;;5089304;28;20554;-88
2021/12/24 05:58:15;;;;;;;1.67;1.57;;;0.60;99.90;;;;;;5090735;28;20431;-90
2021/12/24 06:00:41;;;;;;;1.30;1.20;;;0.60;99.90;;;;;;5087038;28;20550;-89
2021/12/24 06:03:07;;;;;;;2.03;1.93;;;0.60;99.90;;;;;;5084293;28;20255;-88
2021/12/24 06:05:34;;;;;;;1.67;1.57;;;0.60;99.90;;;;;;5088663;28;20435;-88
2021/12/24 06:08:00;;;;;;;2.50;0.93;;;0.60;99.90;;;;;;5089741;28;20437;-88
2021/12/24 06:10:26;;;;;;;0.97;0.97;;;0.60;99.90;;;;;;5072088;28;20858;-87
2021/12/24 06:12:52;;;;;;;7.27;2.70;;;0.60;99.90;;;;;;5093787;28;20268;-88
2021/12/24 06:15:23;;;;;;;3.40;1.47;;;0.60;99.90;;;;;;5074402;28;20530;-88
2021/12/24 06:17:51;;;;;;;1.10;1.10;;;0.60;99.90;;;;;;5091228;28;20242;-88
2021/12/24 06:20:17;;;;;;;0.80;0.80;;;0.60;99.90;;;;;;5068750;28;20443;-88
2021/12/24 06:22:42;;;;;;;0.70;0.70;;;0.60;99.90;;;;;;5091519;28;20836;-86
2021/12/24 06:25:09;;;;;;;1.87;1.70;;;0.50;99.90;;;;;;5090586;28;20545;-88
2021/12/24 06:27:34;;;;;;;1.33;1.23;;;0.50;99.90;;;;;;5092726;28;20182;-87
2021/12/24 06:30:00;;;;;;;1.00;1.00;;;0.50;99.90;;;;;;5073857;28;20489;-88
2021/12/24 06:32:26;;;;;;;0.80;0.80;;;0.50;99.90;;;;;;5074190;28;20710;-87
2021/12/24 06:34:51;;;;;;;1.37;1.30;;;0.50;99.90;;;;;;5092128;28;20480;-87
2021/12/24 06:37:17;;;;;;;1.53;1.43;;;0.50;99.90;;;;;;5092854;28;20234;-87
2021/12/24 06:39:42;;;;;;;2.50;2.40;;;0.50;99.90;;;;;;5073116;28;20209;-88
2021/12/24 06:42:08;;;;;;;1.50;1.40;;;0.50;99.90;;;;;;5074305;28;20680;-88
2021/12/24 06:44:34;;;;;;;1.97;1.87;;;0.50;99.90;;;;;;5075332;28;20189;-87
2021/12/24 06:47:00;;;;;;;4.30;4.10;;;0.50;99.90;;;;;;5092130;28;20189;-87
2021/12/24 06:49:26;;;;;;;1.17;1.10;;;0.50;99.90;;;;;;5074141;28;20692;-87
2021/12/24 06:51:51;;;;;;;3.83;3.53;;;0.50;99.90;;;;;;5091908;28;20511;-86
2021/12/24 06:54:17;;;;;;;0.90;0.90;;;0.50;99.90;;;;;;5091256;28;20574;-86
2021/12/24 06:56:44;;;;;;;3.10;2.90;;;0.50;99.90;;;;;;5074175;28;20185;-87
2021/12/24 06:59:09;;;;;;;0.80;0.80;;;0.50;99.90;;;;;;5081457;28;20190;-88
2021/12/24 07:01:35;;;;;;;0.90;0.90;;;0.50;99.90;;;;;;5092044;28;20887;-88
2021/12/24 07:04:00;;;;;;;1.30;1.20;;;0.50;99.90;;;;;;5068685;28;20743;-87
2021/12/24 07:06:26;;;;;;;0.87;0.87;;;0.40;99.90;;;;;;5084893;28;20169;-87
2021/12/24 07:08:51;;;;;;;1.30;1.20;;;0.50;99.90;;;;;;5086091;28;20201;-86
2021/12/24 07:11:17;;;;;;;1.17;1.07;;;0.40;99.90;;;;;;5072325;28;20280;-88
2021/12/24 07:13:42;;;;;;;0.87;0.87;;;0.40;99.90;;;;;;5072384;28;20210;-87
2021/12/24 07:16:08;;;;;;;1.30;1.20;;;0.50;99.90;;;;;;5067894;28;20189;-87
2021/12/24 07:18:33;;;;;;;1.57;1.47;;;0.40;99.90;;;;;;5073050;28;20411;-88
2021/12/24 07:20:59;;;;;;;1.50;1.37;;;0.50;99.90;;;;;;5073259;28;20596;-88
2021/12/24 07:23:24;;;;;;;1.20;1.10;;;0.50;99.90;;;;;;5071344;28;20232;-87
2021/12/24 07:25:50;;;;;;;0.80;0.80;;;0.50;99.90;;;;;;5083435;28;20181;-88
2021/12/24 07:28:15;;;;;;;7.70;2.97;;;0.40;99.90;;;;;;5089753;28;20672;-90
2021/12/24 07:30:41;;;;;;;2.07;1.90;;;0.40;99.90;;;;;;5066088;28;20212;-92
2021/12/24 07:33:07;;;;;;;1.00;1.00;;;0.50;99.90;;;;;;5079933;28;20200;-93
2021/12/24 07:35:32;;;;;;;0.87;0.87;;;0.40;99.90;;;;;;5093213;28;20250;-91
2021/12/24 07:37:58;;;;;;;6.20;2.07;;;0.40;99.90;;;;;;5094587;28;20184;-91
2021/12/24 07:40:25;;;;;;;0.90;0.90;;;0.50;99.90;;;;;;5074712;28;20771;-91
2021/12/24 07:42:51;;;;;;;1.73;1.63;;;0.50;99.90;;;;;;5093104;28;20663;-90
2021/12/24 07:45:18;;;;;;;1.43;1.20;;;0.50;99.90;;;;;;5093955;28;20439;-90
2021/12/24 07:47:44;;;;;;;2.40;2.20;;;0.50;99.90;;;;;;5073535;28;20589;-87
2021/12/24 07:51:59;;;;;;;1.37;1.27;;;0.50;99.90;;;;;;5072057;28;20487;-88
2021/12/24 07:53:06;;;;;;;0.90;0.90;;;0.50;99.90;;;;;;5087117;28;20550;-90
2021/12/24 07:55:32;;;;;;;4.30;3.37;;;0.50;99.90;;;;;;5073023;28;20431;-88
2021/12/24 07:57:58;;;;;;;1.77;1.67;;;0.50;99.90;;;;;;5091821;28;20442;-89
2021/12/24 08:00:25;;;;;;;1.43;1.37;;;0.50;99.90;;;;;;5091275;28;20428;-90
2021/12/24 08:02:51;;;;;;;0.90;0.90;;;0.50;99.90;;;;;;5088062;28;20470;-90
2021/12/24 08:05:19;;;;;;;0.70;0.60;;;0.50;99.90;;;;;;5074128;28;20579;-90
2021/12/24 08:07:45;;;;;;;3.73;2.23;;;0.50;99.90;;;;;;5069894;28;20287;-89
2021/12/24 08:10:10;;;;;;;3.33;2.23;;;0.50;99.90;;;;;;5091845;28;20488;-90
2021/12/24 08:12:36;;;;;;;0.80;0.80;;;0.50;99.90;;;;;;5092036;28;20593;-89
2021/12/24 08:15:04;;;;;;;3.47;3.23;;;0.50;99.90;;;;;;5072236;28;20943;-89
2021/12/24 08:17:30;;;;;;;1.57;1.47;;;0.50;99.90;;;;;;5071879;28;20181;-91
2021/12/24 08:19:56;;;;;;;1.33;1.23;;;0.50;99.90;;;;;;5088293;28;20891;-87
2021/12/24 08:22:21;;;;;;;1.00;1.00;;;0.50;99.90;;;;;;5090843;28;20256;-88
2021/12/24 08:24:47;;;;;;;1.93;1.83;;;0.60;99.90;;;;;;5091819;28;20265;-88
2021/12/24 08:27:12;;;;;;;0.83;0.83;;;0.60;99.90;;;;;;5090773;28;20193;-88
2021/12/24 08:29:38;;;;;;;1.60;1.50;;;0.60;99.90;;;;;;5072291;28;20224;-87
2021/12/24 08:32:04;;;;;;;1.10;1.00;;;0.60;99.90;;;;;;5088866;28;20338;-88
2021/12/24 08:34:30;;;;;;;1.13;1.10;;;0.60;99.90;;;;;;5089389;28;20213;-89
2021/12/24 08:36:56;;;;;;;0.80;0.80;;;0.60;99.90;;;;;;5073478;28;20538;-89
2021/12/24 08:39:22;;;;;;;0.97;0.93;;;0.60;99.90;;;;;;5087968;28;20939;-89
2021/12/24 08:41:52;;;;;;;1.40;1.30;;;0.60;99.90;;;;;;5090618;28;20536;-89
2021/12/24 08:44:19;;;;;;;0.80;0.80;;;0.70;99.90;;;;;;5085972;28;20192;-89
2021/12/24 08:46:44;;;;;;;2.93;2.20;;;0.70;99.90;;;;;;5086238;28;20443;-87
2021/12/24 08:49:10;;;;;;;2.33;2.23;;;0.70;99.90;;;;;;5088987;28;20477;-88
2021/12/24 08:51:36;;;;;;;1.53;1.43;;;0.60;99.90;;;;;;5070731;28;20189;-88
2021/12/24 08:54:01;;;;;;;1.53;1.27;;;0.70;99.90;;;;;;5086409;28;20239;-87
2021/12/24 08:56:27;;;;;;;0.77;0.70;;;0.70;99.90;;;;;;5071583;28;20183;-88
2021/12/24 08:58:52;;;;;;;0.80;0.73;;;0.70;99.90;;;;;;5089569;28;20231;-88
2021/12/24 09:01:18;;;;;;;1.53;1.40;;;0.70;99.90;;;;;;5089770;28;20193;-89
2021/12/24 09:03:44;;;;;;;0.80;0.77;;;0.80;99.90;;;;;;5089767;28;20193;-88
2021/12/24 09:06:09;;;;;;;1.40;1.30;;;0.80;99.90;;;;;;5071599;28;20181;-88
2021/12/24 09:08:35;;;;;;;2.23;2.13;;;0.80;99.90;;;;;;5089411;28;20199;-89
2021/12/24 09:11:01;;;;;;;1.03;1.03;;;0.70;99.90;;;;;;5090408;28;20318;-87
2021/12/24 09:13:27;;;;;;;0.90;0.90;;;0.80;99.90;;;;;;5090115;28;20439;-89
2021/12/24 09:15:55;;;;;;;1.00;1.00;;;0.80;99.90;;;;;;5088653;28;20510;-88
2021/12/24 09:18:21;;;;;;;1.27;1.17;;;0.90;99.90;;;;;;5093281;28;20213;-89
2021/12/24 09:20:47;;;;;;;1.10;1.00;;;0.90;99.90;;;;;;5088807;28;20454;-90
2021/12/24 09:23:13;;;;;;;1.67;1.57;;;0.90;99.90;;;;;;5070496;28;20224;-90
2021/12/24 09:25:40;;;;;;;0.90;0.90;;;1.00;99.90;;;;;;5087244;28;20488;-89
2021/12/24 09:28:06;;;;;;;1.30;1.20;;;0.90;99.90;;;;;;5088511;28;20186;-89
2021/12/24 09:30:33;;;;;;;0.80;0.80;;;0.90;99.90;;;;;;5088830;28;20482;-90
2021/12/24 09:32:58;;;;;;;0.97;0.97;;;0.90;99.90;;;;;;5072539;28;20492;-90
2021/12/24 09:35:26;;;;;;;0.90;0.90;;;0.90;99.90;;;;;;5073051;28;20957;-91
2021/12/24 09:37:53;;;;;;;0.80;0.80;;;0.80;99.90;;;;;;5088670;28;20177;-90
2021/12/24 09:40:20;;;;;;;0.83;0.83;;;0.80;99.90;;;;;;5089936;28;20427;-89
2021/12/24 09:42:46;;;;;;;1.13;1.03;;;0.90;99.90;;;;;;5087405;28;20938;-89
2021/12/24 09:45:13;;;;;;;0.70;0.70;;;0.90;99.90;;;;;;5067752;28;20434;-90
2021/12/24 09:47:39;;;;;;;2.20;2.10;;;0.80;99.90;;;;;;5088923;28;20431;-90
2021/12/24 09:50:07;;;;;;;0.90;0.90;;;0.90;99.90;;;;;;5089259;28;20475;-90
2021/12/24 09:52:33;;;;;;;1.40;1.30;;;0.90;99.90;;;;;;5089884;28;20477;-90
2021/12/24 09:55:11;;;;;;;0.80;0.80;;;0.90;99.90;;;;;;5088207;28;20518;-91
2021/12/24 09:57:36;;;;;;;0.80;0.80;;;0.90;99.90;;;;;;5071973;28;20654;-91
2021/12/24 10:00:05;;;;;;;1.40;1.30;;;0.80;99.90;;;;;;5086369;28;20444;-89
2021/12/24 10:02:44;;;;;;;0.90;0.90;;;0.80;99.90;;;;;;5071705;28;20470;-91
2021/12/24 10:05:24;;;;;;;0.80;0.80;;;0.80;99.90;;;;;;5065244;28;20448;-92
2021/12/24 10:07:50;;;;;;;1.00;1.00;;;0.80;99.90;;;;;;5071810;28;20431;-91
2021/12/24 10:10:25;;;;;;;1.30;1.20;;;0.80;99.90;;;;;;5089898;28;20993;-92
2021/12/24 10:12:53;;;;;;;0.83;0.83;;;0.80;99.90;;;;;;5083089;28;20217;-93
2021/12/24 10:15:18;;;;;;;0.80;0.80;;;0.70;99.90;;;;;;5090324;28;20442;-92
2021/12/24 10:17:45;;;;;;;0.80;0.80;;;0.70;99.90;;;;;;5090313;28;20528;-93
2021/12/24 10:20:14;;;;;;;1.10;1.03;;;0.70;99.90;;;;;;5074179;28;20181;-93
2021/12/24 10:22:53;;;;;;;0.90;0.90;;;0.70;99.90;;;;;;5092372;28;20450;-94
2021/12/24 10:25:27;;;;;;;0.90;0.90;;;0.80;99.90;;;;;;5088203;28;20434;-95
2021/12/24 10:27:53;;;;;;;1.60;1.50;;;0.70;99.90;;;;;;5091990;28;20865;-94
2021/12/24 10:30:31;;;;;;;0.80;0.80;;;0.70;99.90;;;;;;5073724;28;20482;-93
2021/12/24 10:33:08;;;;;;;1.70;1.60;;;0.70;99.90;;;;;;5092141;28;20622;-94
2021/12/24 10:35:33;;;;;;;0.80;0.80;;;0.80;99.90;;;;;;5079251;28;20473;-93
2021/12/24 10:38:11;;;;;;;1.97;1.87;;;0.80;99.90;;;;;;5071566;28;20443;-94
2021/12/24 10:41:06;;;;;;;1.60;1.50;;;0.90;99.90;;;;;;5088229;28;20222;-93
2021/12/24 10:43:34;;;;;;;0.80;0.80;;;0.90;99.90;;;;;;5092917;28;20510;-93
2021/12/24 10:46:17;;;;;;;2.67;2.57;;;0.90;99.90;;;;;;5097716;28;20427;-94
2021/12/24 10:52:12;;;;;;;2.53;2.43;;;0.80;99.90;;;;;;5065569;28;20940;-92
2021/12/24 10:54:58;;;;;;;1.67;1.57;;;0.80;99.90;;;;;;5085450;28;20442;-93
2021/12/24 10:57:27;;;;;;;2.80;1.73;;;0.80;99.90;;;;;;5069319;28;20470;-94
2021/12/24 10:59:56;;;;;;;2.00;1.40;;;0.90;99.90;;;;;;5075961;28;20478;-92
2021/12/24 11:02:28;;;;;;;0.87;0.87;;;0.90;99.90;;;;;;5088755;28;20431;-92
2021/12/24 11:04:53;;;;;;;0.97;0.97;;;0.90;99.90;;;;;;5095203;28;20442;-94
2021/12/24 11:07:31;;;;;;;1.37;1.30;;;0.80;99.90;;;;;;5093514;28;20427;-92
2021/12/24 11:10:19;;;;;;;1.07;1.00;;;0.90;99.90;;;;;;5096596;28;20208;-93
2021/12/24 11:12:54;;;;;;;0.87;0.87;;;0.90;99.90;;;;;;5090509;28;20439;-93
2021/12/24 11:15:22;;;;;;;0.80;0.80;;;0.90;99.90;;;;;;5089105;28;20434;-94
2021/12/24 11:17:50;;;;;;;0.80;0.73;;;0.90;99.90;;;;;;5090531;28;20437;-92
2021/12/24 11:20:16;;;;;;;0.80;0.80;;;0.90;99.90;;;;;;5071835;28;20447;-92
2021/12/24 11:22:57;;;;;;;2.13;2.00;;;0.90;99.90;;;;;;5067858;28;21928;-93
2021/12/24 11:25:25;;;;;;;1.37;1.27;;;1.00;99.90;;;;;;5095717;28;20809;-93
2021/12/24 11:27:50;;;;;;;1.03;1.03;;;1.10;99.90;;;;;;5093901;28;20427;-94
2021/12/24 11:30:17;;;;;;;1.83;1.77;;;1.20;99.90;;;;;;5101389;28;20845;-95
2021/12/24 11:32:45;;;;;;;0.80;0.80;;;1.30;99.90;;;;;;5079064;28;20189;-94
2021/12/24 11:35:13;;;;;;;1.50;1.40;;;1.30;99.90;;;;;;5092025;28;20482;-94
2021/12/24 11:37:44;;;;;;;1.37;1.30;;;1.30;99.90;;;;;;5096487;28;20816;-94
2021/12/24 11:40:14;;;;;;;0.80;0.80;;;1.20;99.90;;;;;;5108312;27;20466;-95
2021/12/24 11:42:42;;;;;;;1.00;0.90;;;1.10;99.90;;;;;;5088960;28;20476;-95
2021/12/24 11:45:08;;;;;;;3.57;3.37;;;1.20;99.90;;;;;;5094857;28;20450;-94
2021/12/24 11:47:34;;;;;;;0.80;0.73;;;1.20;99.90;;;;;;5073051;28;20542;-94
2021/12/24 11:50:01;;;;;;;0.90;0.90;;;1.10;99.90;;;;;;5090489;28;20489;-94
2021/12/24 11:52:27;;;;;;;0.87;0.87;;;1.10;99.90;;;;;;5089156;28;20526;-95
2021/12/24 11:54:58;;;;;;;1.20;1.10;;;1.10;99.90;;;;;;5075070;28;20507;-95
2021/12/24 11:57:24;;;;;;;0.80;0.80;;;1.10;99.90;;;;;;5090614;28;20427;-96
2021/12/24 11:59:50;;;;;;;0.80;0.80;;;1.10;99.90;;;;;;5095893;28;20485;-92
2021/12/24 12:02:41;;;;;;;0.73;0.70;;;1.00;99.90;;;;;;5092614;28;20443;-93
2021/12/24 12:05:10;;;;;;;0.80;0.80;;;1.00;99.90;;;;;;5090047;28;20190;-93
2021/12/24 12:07:36;;;;;;;0.80;0.80;;;1.00;99.90;;;;;;5090992;28;20467;-94
2021/12/24 12:10:03;;;;;;;0.83;0.83;;;1.00;99.90;;;;;;5070197;28;20527;-95
2021/12/24 12:12:33;;;;;;;1.20;1.10;;;1.00;99.90;;;;;;5092761;28;20305;-94
2021/12/24 12:15:22;;;;;;;1.10;1.00;;;1.00;99.90;;;;;;5091082;28;20467;-93
2021/12/24 12:17:53;;;;;;;0.90;0.90;;;1.00;99.90;;;;;;5074709;28;20420;-93
2021/12/24 12:20:57;;;;;;;0.80;0.80;;;1.00;99.90;;;;;;5099881;22;20539;-92
2021/12/24 12:26:36;;;;;;;0.80;0.80;;;1.00;99.90;;;;;;5031973;28;20608;-95
2021/12/24 12:29:19;;;;;;;0.80;0.80;;;1.00;99.90;;;;;;5036002;28;20441;-93
2021/12/24 12:31:49;;;;;;;1.63;1.53;;;1.00;99.90;;;;;;5033556;28;20441;-94
2021/12/24 12:34:37;;;;;;;0.80;0.80;;;0.90;99.90;;;;;;5027451;28;20993;-89
2021/12/24 12:37:31;;;;;;;0.80;0.80;;;0.90;99.90;;;;;;5030415;28;20434;-93
2021/12/24 12:40:01;;;;;;;0.80;0.80;;;0.90;99.90;;;;;;5026932;28;20836;-92
2021/12/24 12:42:54;;;;;;;0.80;0.80;;;0.90;99.90;;;;;;5029184;28;20430;-92
2021/12/24 12:45:42;;;;;;;0.70;0.70;;;0.90;99.90;;;;;;5036864;28;20464;-92
2021/12/24 12:48:10;;;;;;;0.80;0.73;;;0.90;99.90;;;;;;5031394;28;20455;-91
2021/12/24 12:50:39;;;;;;;0.83;0.83;;;0.90;99.90;;;;;;5030962;28;20477;-91
2021/12/24 12:53:33;;;;;;;0.80;0.80;;;0.90;99.90;;;;;;5033622;28;20434;-92
2021/12/24 12:56:11;;;;;;;0.80;0.80;;;1.00;99.90;;;;;;5029867;28;20430;-89
2021/12/24 12:58:36;;;;;;;0.80;0.80;;;1.00;99.90;;;;;;5030475;28;20513;-93
2021/12/24 13:01:14;;;;;;;0.80;0.80;;;0.90;99.90;;;;;;5032113;28;20477;-94
2021/12/24 13:03:58;;;;;;;1.00;0.90;;;0.90;99.90;;;;;;5034012;28;20203;-93
2021/12/24 13:06:42;;;;;;;0.80;0.80;;;0.90;99.90;;;;;;5026859;28;20453;-92
2021/12/24 13:09:13;;;;;;;0.80;0.70;;;0.90;99.90;;;;;;5029443;28;20465;-90
2021/12/24 13:11:41;;;;;;;0.80;0.80;;;0.90;99.90;;;;;;5032893;28;20442;-92
2021/12/24 13:14:08;;;;;;;0.80;0.80;;;0.80;99.90;;;;;;5036050;28;20442;-92
2021/12/24 13:16:49;;;;;;;0.80;0.77;;;0.80;99.90;;;;;;5031786;28;20438;-93
2021/12/24 13:24:46;;;;;;;0.80;0.80;;;0.70;99.90;;;;;;5026761;28;20569;-92
2021/12/24 13:27:11;;;;;;;0.80;0.80;;;0.70;99.90;;;;;;5029500;28;20969;-93
2021/12/24 13:29:37;;;;;;;0.80;0.80;;;0.70;99.90;;;;;;5029047;28;20478;-93
2021/12/24 13:32:04;;;;;;;1.00;0.90;;;0.60;99.90;;;;;;5024247;28;20192;-92
2021/12/24 13:34:29;;;;;;;1.30;1.20;;;0.60;99.90;;;;;;5029802;28;20187;-92
2021/12/24 13:37:09;;;;;;;0.80;0.80;;;0.60;99.90;;;;;;5029808;28;20446;-95
2021/12/24 13:39:45;;;;;;;1.10;1.00;;;0.50;99.90;;;;;;5029380;28;20207;-91
2021/12/24 13:42:11;;;;;;;0.90;0.80;;;0.50;99.90;;;;;;5039563;28;20437;-92
2021/12/24 13:44:38;;;;;;;0.80;0.73;;;0.40;99.90;;;;;;5030858;28;20977;-92
2021/12/24 13:47:14;;;;;;;1.00;0.90;;;0.40;99.90;;;;;;5030515;28;20207;-92
2021/12/24 13:55:45;;;;;;;1.10;1.00;;;0.40;99.90;;;;;;5023284;28;20960;-92
2021/12/24 13:58:14;;;;;;;1.00;0.90;;;0.40;99.90;;;;;;5031703;28;20480;-92
2021/12/24 14:00:46;;;;;;;0.97;0.90;;;0.40;99.90;;;;;;5033935;28;20423;-91
2021/12/24 14:03:12;;;;;;;0.80;0.80;;;0.40;99.90;;;;;;5033138;28;20435;-92
2021/12/24 14:05:52;;;;;;;0.87;0.87;;;0.40;99.90;;;;;;5032413;28;20445;-93
2021/12/24 14:08:24;;;;;;;0.83;0.83;;;0.20;99.90;;;;;;5020567;28;20187;-92
2021/12/24 14:11:11;;;;;;;0.80;0.70;;;0.20;99.90;;;;;;5030193;28;20481;-91
2021/12/24 14:13:51;;;;;;;1.00;0.90;;;0.10;99.90;;;;;;5027663;28;20529;-91
2021/12/24 14:19:08;;;;;;;1.00;0.90;;;0.00;99.90;;;;;;5025749;28;20966;-91
2021/12/24 14:22:07;;;;;;;0.80;0.80;;;0.00;99.90;;;;;;5023310;28;20626;-92
2021/12/24 14:24:57;;;;;;;1.07;0.97;;;-0.10;99.90;;;;;;5021338;28;20478;-91
2021/12/24 14:27:24;;;;;;;1.20;1.10;;;-0.20;99.90;;;;;;5016699;28;20438;-90
2021/12/24 14:30:04;;;;;;;1.03;0.93;;;-0.20;99.90;;;;;;5047653;28;20478;-92
2021/12/24 14:33:03;;;;;;;1.10;1.00;;;-0.20;99.90;;;;;;5033914;28;20430;-92
2021/12/24 14:35:32;;;;;;;1.07;0.97;;;-0.30;99.90;;;;;;5025721;28;20466;-93
2021/12/24 14:38:17;;;;;;;1.20;1.10;;;-0.30;99.90;;;;;;5039706;28;20436;-92
2021/12/24 14:41:47;;;;;;;1.10;1.00;;;-0.30;99.90;;;;;;5030400;28;20460;-91
2021/12/24 14:44:53;;;;;;;0.93;0.87;;;-0.30;99.90;;;;;;5005949;28;20429;-93
2021/12/24 14:48:08;;;;;;;1.20;1.10;;;-0.30;99.90;;;;;;5039469;28;20435;-93
2021/12/24 14:54:54;;;;;;;0.80;0.80;;;-0.40;99.90;;;;;;4955668;28;20446;-94
2021/12/24 14:57:45;;;;;;;1.10;1.00;;;-0.40;99.90;;;;;;4914798;29;20525;-92
2021/12/24 15:00:13;;;;;;;1.20;1.10;;;-0.50;99.90;;;;;;4939314;29;20446;-94
2021/12/24 15:03:07;;;;;;;1.00;0.90;;;-0.50;99.90;;;;;;5016450;28;20453;-94
2021/12/24 15:05:36;;;;;;;1.10;1.00;;;-0.60;99.90;;;;;;5032249;28;20439;-92
2021/12/24 15:08:26;;;;;;;1.10;1.00;;;-0.70;99.90;;;;;;5033033;28;20435;-91